Effie, Minnesota
Current Conditions -  °F | °C
As of 3:53 AM on Saturday 29 Nov 2014 (Local Time) from KFOZ Reporting Station
Overcast Overcast  
Wind Chill: -7°   Ceiling: 1100
Heat Index: -7°   Visibility: 10mi
Dew Point: -9°   Wind: 3mph
Humidity: 86%   Direction: 150°SSE
Pressure: 29.51"   Gusts: NA
Location:  47.84°N, 93.64°W
Report Text: KFOZ 290953Z AUTO 15003KT 10SM OVC011 M07/M09 A2951 RMK AO2
Loading
Personal Weather Stations






























Interactive Weather Map New forecast layout! Learn more

10-Day Weather Forecast

Advertisements
Track Severe Weather on mobile